createdAt,value
2023-09-30T00:01:47.953Z,2.45
2023-09-30T00:05:51.749Z,2.70
2023-09-30T00:07:53.267Z,2.70
2023-09-30T00:09:54.899Z,3.85
2023-09-30T00:11:56.828Z,4.05
2023-09-30T00:13:58.598Z,3.78
2023-09-30T00:16:00.272Z,3.20
2023-09-30T00:18:02.753Z,3.00
2023-09-30T00:20:05.178Z,3.05
2023-09-30T00:22:06.733Z,2.45
2023-09-30T00:24:08.906Z,2.60
2023-09-30T00:26:10.464Z,2.85
2023-09-30T00:28:12.099Z,1.85
2023-09-30T00:30:14.018Z,6.85
2023-09-30T00:32:15.610Z,2.80
2023-09-30T00:34:17.142Z,2.83
2023-09-30T00:36:18.800Z,2.58
2023-09-30T00:38:20.846Z,3.13
2023-09-30T00:40:22.563Z,3.92
2023-09-30T00:42:24.257Z,4.47
2023-09-30T00:44:29.259Z,4.57
2023-09-30T00:46:33.342Z,4.75
2023-09-30T00:48:35.867Z,4.20
2023-09-30T00:50:38.294Z,5.70
2023-09-30T00:52:40.093Z,3.53
2023-09-30T00:54:41.866Z,3.90
2023-09-30T00:56:47.749Z,3.35
2023-09-30T00:58:52.224Z,3.40
2023-09-30T01:00:54.296Z,5.40
2023-09-30T01:02:56.011Z,5.35
2023-09-30T01:04:57.731Z,3.15
2023-09-30T01:06:59.353Z,2.47
2023-09-30T01:09:02.333Z,2.90
2023-09-30T01:11:03.942Z,6.05
2023-09-30T01:13:05.945Z,3.30
2023-09-30T01:15:08.724Z,6.43
2023-09-30T01:17:12.554Z,3.17
2023-09-30T01:19:14.181Z,3.53
2023-09-30T01:21:16.839Z,3.80
2023-09-30T01:25:20.612Z,3.38
2023-09-30T01:27:22.200Z,3.15
2023-09-30T01:29:26.700Z,2.97
2023-09-30T01:31:28.386Z,3.05
2023-09-30T01:33:30.091Z,3.13
2023-09-30T01:35:31.646Z,3.08
2023-09-30T01:37:33.418Z,3.38
2023-09-30T01:39:35.113Z,4.28
2023-09-30T01:41:37.054Z,2.83
2023-09-30T01:43:39.343Z,3.08
2023-09-30T01:45:42.057Z,2.33
2023-09-30T01:47:44.303Z,2.83
2023-09-30T01:49:46.671Z,5.15
2023-09-30T01:53:50.346Z,3.33
2023-09-30T01:55:52.387Z,5.18
2023-09-30T01:57:54.158Z,3.33
2023-09-30T01:59:56.017Z,3.95
2023-09-30T02:01:57.669Z,3.83
2023-09-30T02:03:59.429Z,3.70
2023-09-30T02:06:01.225Z,5.03
2023-09-30T02:08:06.872Z,3.40
2023-09-30T02:10:09.181Z,2.28
2023-09-30T02:12:11.834Z,3.05
2023-09-30T02:14:13.472Z,3.50
2023-09-30T02:16:16.386Z,3.55
2023-09-30T02:20:23.066Z,3.88
2023-09-30T02:22:25.813Z,3.63
2023-09-30T02:24:27.418Z,3.28
2023-09-30T02:26:30.230Z,4.03
2023-09-30T02:28:33.420Z,2.65
2023-09-30T02:30:36.600Z,4.38
2023-09-30T02:32:40.243Z,3.78
2023-09-30T02:34:42.837Z,3.72
2023-09-30T02:36:45.333Z,4.45
2023-09-30T02:38:47.496Z,5.47
2023-09-30T02:40:49.909Z,4.40
2023-09-30T02:42:52.964Z,3.05
2023-09-30T02:44:54.528Z,6.05
2023-09-30T02:46:56.659Z,5.88
2023-09-30T02:48:58.761Z,5.93
2023-09-30T02:51:00.387Z,5.50
2023-09-30T02:55:05.181Z,5.88
2023-09-30T02:57:06.871Z,4.63
2023-09-30T02:59:08.585Z,3.30
2023-09-30T03:01:11.005Z,5.43
2023-09-30T03:03:13.645Z,5.25
2023-09-30T03:05:16.764Z,3.38
2023-09-30T03:07:20.675Z,3.28
2023-09-30T03:09:22.268Z,4.88
2023-09-30T03:11:24.344Z,6.85
2023-09-30T03:13:26.018Z,5.32
2023-09-30T03:15:28.257Z,4.47
2023-09-30T03:17:30.282Z,4.28
2023-09-30T03:19:31.913Z,5.25
2023-09-30T03:21:33.535Z,4.03
2023-09-30T03:23:36.136Z,5.57
2023-09-30T03:25:38.018Z,4.20
2023-09-30T03:27:39.934Z,5.28
2023-09-30T03:29:41.966Z,3.33
2023-09-30T03:31:43.545Z,4.35
2023-09-30T03:33:45.115Z,3.15
2023-09-30T03:35:46.991Z,3.95
2023-09-30T03:37:49.290Z,5.18
2023-09-30T03:41:53.165Z,5.25
2023-09-30T03:43:54.971Z,5.38
2023-09-30T03:45:58.367Z,4.55
2023-09-30T03:48:00.034Z,6.38
2023-09-30T03:50:02.142Z,3.33
2023-09-30T03:52:04.412Z,5.40
2023-09-30T03:54:07.121Z,4.03
2023-09-30T03:56:09.119Z,5.03
2023-09-30T03:58:11.181Z,4.72
2023-09-30T04:00:17.491Z,3.47
2023-09-30T04:02:20.111Z,4.00
2023-09-30T04:04:24.420Z,4.68
2023-09-30T04:06:26.062Z,3.17
2023-09-30T04:08:27.940Z,4.07
2023-09-30T04:10:31.335Z,4.10
2023-09-30T04:12:33.682Z,4.05
2023-09-30T04:14:35.795Z,5.38
2023-09-30T04:16:38.684Z,3.33
2023-09-30T04:18:42.792Z,4.88
2023-09-30T04:20:45.993Z,4.25
2023-09-30T04:22:49.531Z,4.32
2023-09-30T04:24:53.682Z,4.28
2023-09-30T04:26:58.574Z,4.93
2023-09-30T04:29:00.559Z,3.42
2023-09-30T04:31:04.087Z,3.85
2023-09-30T04:33:05.993Z,3.50
2023-09-30T04:35:11.357Z,4.40
2023-09-30T04:37:13.326Z,2.53
2023-09-30T04:39:15.925Z,3.92
2023-09-30T04:41:17.473Z,4.43
2023-09-30T04:43:19.147Z,2.85
2023-09-30T04:45:21.205Z,3.15
2023-09-30T04:47:25.064Z,5.28
2023-09-30T04:49:26.897Z,3.22
2023-09-30T04:51:28.877Z,3.67
2023-09-30T04:53:30.515Z,3.85
2023-09-30T04:55:32.241Z,4.65
2023-09-30T04:57:33.862Z,4.40
2023-09-30T04:59:35.496Z,4.93
2023-09-30T05:01:37.131Z,3.20
2023-09-30T05:03:39.050Z,5.18
2023-09-30T05:05:40.828Z,5.55
2023-09-30T05:07:42.703Z,4.57
2023-09-30T05:09:44.395Z,4.28
2023-09-30T05:11:45.901Z,3.40
2023-09-30T05:13:47.460Z,4.15
2023-09-30T05:15:49.703Z,3.58
2023-09-30T05:17:51.507Z,2.75
2023-09-30T05:19:53.990Z,3.55
2023-09-30T05:21:55.804Z,3.83
2023-09-30T05:23:57.863Z,3.92
2023-09-30T05:26:00.087Z,3.10
2023-09-30T05:28:04.634Z,3.75
2023-09-30T05:30:07.448Z,3.67
2023-09-30T05:32:09.817Z,2.85
2023-09-30T05:36:14.532Z,5.18
2023-09-30T05:38:17.050Z,4.10
2023-09-30T05:40:23.326Z,3.47
2023-09-30T05:42:26.238Z,4.05
2023-09-30T05:44:28.465Z,3.60
2023-09-30T05:46:32.147Z,4.90
2023-09-30T05:48:33.962Z,3.53
2023-09-30T05:50:38.296Z,3.70
2023-09-30T05:52:40.015Z,3.03
2023-09-30T05:54:42.139Z,2.78
2023-09-30T06:08:34.365Z,3.58
2023-09-30T06:23:08.104Z,32.20
2023-09-30T06:25:10.214Z,29.95
2023-09-30T06:27:14.524Z,13.45
2023-09-30T06:29:16.595Z,11.15
2023-09-30T06:31:18.306Z,8.05
2023-09-30T06:33:20.064Z,5.97
2023-09-30T06:35:23.386Z,7.95
2023-09-30T06:37:27.596Z,12.45
2023-09-30T06:39:30.535Z,7.05
2023-09-30T06:41:33.132Z,6.18
2023-09-30T06:43:36.914Z,5.72
2023-09-30T06:45:43.475Z,6.25
2023-09-30T06:48:24.781Z,7.40
2023-09-30T06:50:26.403Z,9.07
2023-09-30T06:52:28.714Z,8.68
2023-09-30T06:54:32.154Z,10.02
2023-09-30T06:59:27.153Z,9.60
2023-09-30T07:03:48.515Z,9.38
2023-09-30T07:05:57.550Z,9.55
2023-09-30T07:08:24.499Z,7.05
2023-09-30T07:10:37.626Z,6.50
2023-09-30T07:21:42.164Z,4.57
2023-09-30T07:23:49.251Z,4.43
2023-09-30T07:25:51.096Z,3.65
2023-09-30T07:27:54.556Z,4.22
2023-09-30T07:29:56.437Z,6.47
2023-09-30T07:32:32.834Z,5.13
2023-09-30T07:34:51.306Z,6.32
2023-09-30T07:36:56.717Z,3.90
2023-09-30T07:38:58.712Z,4.65
2023-09-30T07:50:50.021Z,3.50
2023-09-30T07:53:50.186Z,4.18
2023-09-30T07:56:16.647Z,5.60
2023-09-30T07:59:16.084Z,4.22
2023-09-30T08:08:19.297Z,4.63
2023-09-30T08:13:10.624Z,4.93
2023-09-30T08:29:46.032Z,6.20
2023-09-30T08:32:20.472Z,6.68
2023-09-30T08:38:15.766Z,4.30
2023-09-30T08:40:24.074Z,5.90
2023-09-30T08:44:33.907Z,5.78
2023-09-30T08:46:38.331Z,4.55
2023-09-30T08:48:40.559Z,4.60
2023-09-30T08:52:46.019Z,4.68
2023-09-30T08:54:49.092Z,6.80
2023-09-30T08:57:45.619Z,6.25
2023-09-30T09:08:04.935Z,8.00
2023-09-30T09:10:56.084Z,3.88
2023-09-30T09:13:00.439Z,5.45
2023-09-30T09:15:24.088Z,3.83
2023-09-30T09:17:44.656Z,6.05
2023-09-30T09:22:05.360Z,4.55
2023-09-30T09:24:07.181Z,4.95
2023-09-30T09:26:10.027Z,5.40
2023-09-30T09:28:12.132Z,4.63
2023-09-30T09:30:23.071Z,5.18
2023-09-30T09:56:01.007Z,5.97
2023-09-30T09:58:04.028Z,5.50
2023-09-30T10:00:12.691Z,6.18
2023-09-30T10:02:17.832Z,5.47
2023-09-30T10:04:19.819Z,4.43
2023-09-30T10:06:22.089Z,3.97
2023-09-30T10:08:32.429Z,5.82
2023-09-30T10:10:41.082Z,4.30
2023-09-30T10:12:43.683Z,4.38
2023-09-30T10:14:46.055Z,4.70
2023-09-30T10:16:48.303Z,4.68
2023-09-30T10:19:16.301Z,5.78
2023-09-30T10:21:18.605Z,5.15
2023-09-30T10:25:41.384Z,5.03
2023-09-30T10:27:44.863Z,5.72
2023-09-30T10:29:46.762Z,5.57
2023-09-30T10:31:51.890Z,3.67
2023-09-30T10:34:02.665Z,4.70
2023-09-30T10:36:05.621Z,4.57
2023-09-30T10:38:39.796Z,5.47
2023-09-30T10:40:41.694Z,5.80
2023-09-30T10:42:47.163Z,5.13
2023-09-30T10:44:48.938Z,3.90
2023-09-30T10:46:51.306Z,5.57
2023-09-30T10:48:53.966Z,5.05
2023-09-30T10:51:01.601Z,4.20
2023-09-30T10:53:06.588Z,5.75
2023-09-30T10:55:08.816Z,4.32
2023-09-30T10:57:11.607Z,3.92
2023-09-30T10:59:26.008Z,3.83
2023-09-30T11:01:34.120Z,4.28
2023-09-30T11:03:36.526Z,4.22
2023-09-30T11:06:07.644Z,5.05
2023-09-30T11:08:04.729Z,5.13
2023-09-30T11:10:07.415Z,4.95
2023-09-30T11:12:15.722Z,5.40
2023-09-30T11:14:26.813Z,5.75
2023-09-30T11:16:30.474Z,5.28
2023-09-30T11:18:33.095Z,6.03
2023-09-30T11:20:35.423Z,5.72
2023-09-30T11:22:37.073Z,4.93
2023-09-30T11:24:38.889Z,4.95
2023-09-30T11:26:42.256Z,5.22
2023-09-30T11:28:45.964Z,5.72
2023-09-30T11:30:58.497Z,4.43
2023-09-30T11:33:01.616Z,8.52
2023-09-30T11:35:03.733Z,4.85
2023-09-30T11:37:06.860Z,5.25
2023-09-30T11:39:10.415Z,3.58
2023-09-30T11:41:12.105Z,5.65
2023-09-30T11:43:15.348Z,4.78
2023-09-30T11:45:21.736Z,5.35
2023-09-30T11:47:31.599Z,5.00
2023-09-30T11:49:41.586Z,4.10
2023-09-30T11:51:47.330Z,5.93
2023-09-30T11:53:50.051Z,6.20
2023-09-30T11:55:51.668Z,4.40
2023-09-30T11:57:55.759Z,4.40
2023-09-30T11:59:57.686Z,4.00
2023-09-30T12:02:13.610Z,5.10
2023-09-30T12:04:18.493Z,4.28
2023-09-30T12:06:20.286Z,5.68
2023-09-30T12:08:24.197Z,4.20
2023-09-30T12:10:26.929Z,3.13
2023-09-30T12:12:28.610Z,4.82
2023-09-30T12:14:32.481Z,5.00
2023-09-30T12:16:34.096Z,5.30
2023-09-30T12:18:35.745Z,4.20
2023-09-30T12:20:37.613Z,5.65
2023-09-30T12:22:39.331Z,2.83
2023-09-30T12:24:41.508Z,5.03
2023-09-30T12:26:49.088Z,5.28
2023-09-30T12:28:50.775Z,6.20
2023-09-30T12:30:53.769Z,4.57
2023-09-30T12:32:56.142Z,4.80
2023-09-30T12:34:57.884Z,4.75
2023-09-30T12:37:00.338Z,4.85
2023-09-30T12:39:01.945Z,5.38
2023-09-30T12:41:04.825Z,5.63
2023-09-30T12:43:07.832Z,4.25
2023-09-30T12:45:10.700Z,5.07
2023-09-30T12:47:12.226Z,5.28
2023-09-30T12:49:13.839Z,4.45
2023-09-30T12:51:16.354Z,5.05
2023-09-30T12:53:18.035Z,4.35
2023-09-30T12:55:19.594Z,5.07
2023-09-30T12:57:21.219Z,4.43
2023-09-30T12:59:26.588Z,4.20
2023-09-30T13:01:29.907Z,5.65
2023-09-30T13:03:31.805Z,2.85
2023-09-30T13:05:33.999Z,3.92
2023-09-30T13:07:35.532Z,2.70
2023-09-30T13:09:40.794Z,3.60
2023-09-30T13:11:42.816Z,3.05
2023-09-30T13:13:44.448Z,4.60
2023-09-30T13:15:46.047Z,4.25
2023-09-30T13:17:47.765Z,3.83
2023-09-30T13:19:51.345Z,4.80
2023-09-30T13:21:56.808Z,3.38
2023-09-30T13:23:58.662Z,5.75
2023-09-30T13:26:00.221Z,4.60
2023-09-30T13:28:02.798Z,3.85
2023-09-30T13:30:05.615Z,3.05
2023-09-30T13:32:07.273Z,3.63
2023-09-30T13:34:09.055Z,4.07
2023-09-30T13:36:11.259Z,2.90
2023-09-30T13:38:13.276Z,3.35
2023-09-30T13:42:18.965Z,4.40
2023-09-30T13:44:20.697Z,2.20
2023-09-30T13:46:25.731Z,3.65
2023-09-30T13:48:27.512Z,3.28
2023-09-30T13:50:29.168Z,2.67
2023-09-30T13:52:32.322Z,3.95
2023-09-30T13:54:35.883Z,2.17
2023-09-30T13:56:38.155Z,3.50
2023-09-30T13:58:40.121Z,3.53
2023-09-30T14:02:49.855Z,3.38
2023-09-30T14:04:53.465Z,2.58
2023-09-30T14:06:57.594Z,2.72
2023-09-30T14:09:00.035Z,2.40
2023-09-30T14:11:02.211Z,3.25
2023-09-30T14:15:07.036Z,2.72
2023-09-30T14:17:12.175Z,4.88
2023-09-30T14:19:15.107Z,2.10
2023-09-30T14:21:19.517Z,4.93
2023-09-30T14:23:21.220Z,2.22
2023-09-30T14:25:23.168Z,2.33
2023-09-30T14:29:26.979Z,3.05
2023-09-30T14:33:30.430Z,1.58
2023-09-30T14:35:35.212Z,2.30
2023-09-30T14:37:37.422Z,3.95
2023-09-30T14:39:39.662Z,2.60
2023-09-30T14:41:41.307Z,2.13
2023-09-30T14:43:42.870Z,3.65
2023-09-30T14:45:44.513Z,2.85
2023-09-30T14:47:46.207Z,3.50
2023-09-30T14:49:47.892Z,3.30
2023-09-30T14:51:49.704Z,3.05
2023-09-30T14:53:51.841Z,3.63
2023-09-30T14:55:53.371Z,3.05
2023-09-30T14:57:55.124Z,1.83
2023-09-30T15:00:00.695Z,2.17
2023-09-30T15:02:02.503Z,2.30
2023-09-30T15:06:06.638Z,1.88
2023-09-30T15:08:08.284Z,2.63
2023-09-30T15:10:10.669Z,2.05
2023-09-30T15:12:12.440Z,2.65
2023-09-30T15:14:13.993Z,2.17
2023-09-30T15:16:20.565Z,2.50
2023-09-30T15:18:22.930Z,1.95
2023-09-30T15:20:26.538Z,1.95
2023-09-30T15:22:28.395Z,2.05
2023-09-30T15:24:30.373Z,2.28
2023-09-30T15:26:35.899Z,2.72
2023-09-30T15:28:38.958Z,4.03
2023-09-30T15:30:41.355Z,1.73
2023-09-30T15:32:43.279Z,3.10
2023-09-30T15:34:44.968Z,1.92
2023-09-30T15:36:46.707Z,2.15
2023-09-30T15:38:48.804Z,2.20
2023-09-30T15:42:54.434Z,2.50
2023-09-30T15:44:57.267Z,2.17
2023-09-30T15:46:58.988Z,2.70
2023-09-30T15:49:01.143Z,2.72
2023-09-30T15:51:03.609Z,2.35
2023-09-30T15:53:05.698Z,2.17
2023-09-30T15:55:07.630Z,1.60
2023-09-30T15:57:09.435Z,1.42
2023-09-30T15:59:10.973Z,4.03
2023-09-30T16:01:14.134Z,3.15
2023-09-30T16:03:16.163Z,1.90
2023-09-30T16:05:17.771Z,3.10
2023-09-30T16:07:19.516Z,2.60
2023-09-30T16:09:21.168Z,3.20
2023-09-30T16:11:26.519Z,2.40
2023-09-30T16:13:28.946Z,2.33
2023-09-30T16:15:31.653Z,3.13
2023-09-30T16:17:33.453Z,3.10
2023-09-30T16:19:35.709Z,1.75
2023-09-30T16:21:37.460Z,3.15
2023-09-30T16:23:39.245Z,3.05
2023-09-30T16:25:40.807Z,2.40
2023-09-30T16:27:43.326Z,3.20
2023-09-30T16:29:45.253Z,2.30
2023-09-30T16:31:47.047Z,3.00
2023-09-30T16:33:49.911Z,2.70
2023-09-30T16:35:53.464Z,3.65
2023-09-30T16:37:55.349Z,3.20
2023-09-30T16:39:57.038Z,2.05
2023-09-30T16:41:59.231Z,3.75
2023-09-30T16:44:00.827Z,2.50
2023-09-30T16:46:02.518Z,2.45
2023-09-30T16:48:04.645Z,2.95
2023-09-30T16:50:06.774Z,1.95
2023-09-30T16:52:09.035Z,2.25
2023-09-30T16:54:10.840Z,2.92
2023-09-30T16:56:12.438Z,2.17
2023-09-30T16:58:14.212Z,3.65
2023-09-30T17:00:16.573Z,3.63
2023-09-30T17:02:19.384Z,2.58
2023-09-30T17:04:20.992Z,2.85
2023-09-30T17:06:22.812Z,3.05
2023-09-30T17:08:24.417Z,3.10
2023-09-30T17:10:26.109Z,2.85
2023-09-30T17:12:27.816Z,3.97
2023-09-30T17:14:30.797Z,2.63
2023-09-30T17:16:32.512Z,2.10
2023-09-30T17:18:35.061Z,2.25
2023-09-30T17:20:42.029Z,3.20
2023-09-30T17:22:43.787Z,2.28
2023-09-30T17:24:45.729Z,1.75
2023-09-30T17:26:47.430Z,2.42
2023-09-30T17:28:52.199Z,3.15
2023-09-30T17:30:54.017Z,1.77
2023-09-30T17:32:55.959Z,3.25
2023-09-30T17:34:57.600Z,1.80
2023-09-30T17:36:59.228Z,3.83
2023-09-30T17:39:00.823Z,3.22
2023-09-30T17:41:03.525Z,3.88
2023-09-30T17:43:05.150Z,4.03
2023-09-30T17:45:07.793Z,3.05
2023-09-30T17:47:09.404Z,4.78
2023-09-30T17:49:11.463Z,3.80
2023-09-30T17:51:21.106Z,3.05
2023-09-30T17:53:23.424Z,2.08
2023-09-30T17:55:25.040Z,2.92
2023-09-30T17:57:27.622Z,2.47
2023-09-30T17:59:31.536Z,3.00
2023-09-30T18:01:33.300Z,2.20
2023-09-30T18:03:35.443Z,3.10
2023-09-30T18:05:37.420Z,4.68
2023-09-30T18:07:39.123Z,2.83
2023-09-30T18:09:40.909Z,2.75
2023-09-30T18:11:42.967Z,3.53
2023-09-30T18:13:45.287Z,3.05
2023-09-30T18:15:47.552Z,3.30
2023-09-30T18:18:05.329Z,4.25
2023-09-30T18:20:11.564Z,3.67
2023-09-30T18:24:15.124Z,5.10
2023-09-30T18:26:17.617Z,6.38
2023-09-30T18:28:19.663Z,5.65
2023-09-30T18:30:22.045Z,8.90
2023-09-30T18:32:23.689Z,7.22
2023-09-30T18:34:25.365Z,5.85
2023-09-30T18:36:28.916Z,5.15
2023-09-30T18:38:30.552Z,6.32
2023-09-30T18:40:32.158Z,3.65
2023-09-30T18:42:33.813Z,4.97
2023-09-30T18:44:36.292Z,3.28
2023-09-30T18:46:38.026Z,3.45
2023-09-30T18:48:40.817Z,4.20
2023-09-30T18:50:46.558Z,4.45
2023-09-30T18:52:48.462Z,5.80
2023-09-30T18:54:50.341Z,3.95
2023-09-30T18:56:52.817Z,4.78
2023-09-30T19:00:56.129Z,5.75
2023-09-30T19:02:57.875Z,4.13
2023-09-30T19:05:00.317Z,4.35
2023-09-30T19:07:01.963Z,2.75
2023-09-30T19:09:03.688Z,5.97
2023-09-30T19:11:05.557Z,6.65
2023-09-30T19:13:07.366Z,6.35
2023-09-30T19:15:10.686Z,7.50
2023-09-30T19:17:13.121Z,6.38
2023-09-30T19:21:16.689Z,4.88
2023-09-30T19:23:18.258Z,4.20
2023-09-30T19:25:20.337Z,4.30
2023-09-30T19:27:22.573Z,2.20
2023-09-30T19:29:24.278Z,3.35
2023-09-30T19:31:25.865Z,4.30
2023-09-30T19:33:28.516Z,4.72
2023-09-30T19:35:30.112Z,5.28
2023-09-30T19:37:31.740Z,4.47
2023-09-30T19:39:33.422Z,2.42
2023-09-30T19:41:40.334Z,2.78
2023-09-30T19:43:41.888Z,4.13
2023-09-30T19:45:43.509Z,4.63
2023-09-30T19:47:45.542Z,3.83
2023-09-30T19:49:48.045Z,2.95
2023-09-30T19:53:51.581Z,2.95
2023-09-30T19:55:53.265Z,3.40
2023-09-30T19:57:55.394Z,2.22
2023-09-30T19:59:57.219Z,3.67
2023-09-30T20:01:59.694Z,2.47
2023-09-30T20:06:17.744Z,3.38
2023-09-30T20:08:19.587Z,3.95
2023-09-30T20:10:21.230Z,3.75
2023-09-30T20:12:24.246Z,5.57
2023-09-30T20:14:27.724Z,3.38
2023-09-30T20:16:30.988Z,4.30
2023-09-30T20:18:33.502Z,3.95
2023-09-30T20:20:35.111Z,3.50
2023-09-30T20:22:36.668Z,4.03
2023-09-30T20:24:39.104Z,3.80
2023-09-30T20:26:40.808Z,3.08
2023-09-30T20:28:42.337Z,2.88
2023-09-30T20:30:43.880Z,2.70
2023-09-30T20:32:46.925Z,2.30
2023-09-30T20:34:49.020Z,3.88
2023-09-30T20:36:52.770Z,3.33
2023-09-30T20:38:54.650Z,4.00
2023-09-30T20:40:56.203Z,4.13
2023-09-30T20:42:58.722Z,3.92
2023-09-30T20:45:00.332Z,4.47
2023-09-30T20:47:01.952Z,3.13
2023-09-30T20:49:05.767Z,2.08
2023-09-30T20:51:08.399Z,2.85
2023-09-30T20:53:11.928Z,3.67
2023-09-30T20:55:13.575Z,3.53
2023-09-30T20:57:16.002Z,3.35
2023-09-30T20:59:17.673Z,2.58
2023-09-30T21:01:19.874Z,4.28
2023-09-30T21:03:22.300Z,3.10
2023-09-30T21:05:23.943Z,3.78
2023-09-30T21:07:25.612Z,5.00
2023-09-30T21:09:27.438Z,2.47
2023-09-30T21:11:29.068Z,2.33
2023-09-30T21:13:30.944Z,1.92
2023-09-30T21:15:35.662Z,5.88
2023-09-30T21:17:38.286Z,1.85
2023-09-30T21:19:39.948Z,2.63
2023-09-30T21:21:41.571Z,3.67
2023-09-30T21:23:43.103Z,1.92
2023-09-30T21:25:45.609Z,2.72
2023-09-30T21:29:49.985Z,2.17
2023-09-30T21:31:52.478Z,2.30
2023-09-30T21:33:55.819Z,4.70
2023-09-30T21:35:58.349Z,4.28
2023-09-30T21:40:03.609Z,4.05
2023-09-30T21:42:06.578Z,2.35
2023-09-30T21:44:08.418Z,2.92
2023-09-30T21:46:10.670Z,2.22
2023-09-30T21:48:12.521Z,3.95
2023-09-30T21:50:14.320Z,3.47
2023-09-30T21:52:15.883Z,2.30
2023-09-30T21:54:17.574Z,1.50
2023-09-30T21:56:19.347Z,2.05
2023-09-30T21:58:21.396Z,1.60
2023-09-30T22:00:37.566Z,1.95
2023-09-30T22:02:40.323Z,1.77
2023-09-30T22:04:45.085Z,2.38
2023-09-30T22:06:47.643Z,3.15
2023-09-30T22:10:54.261Z,1.73
2023-09-30T22:12:56.189Z,1.75
2023-09-30T22:14:57.918Z,2.00
2023-09-30T22:17:00.537Z,1.85
2023-09-30T22:19:03.384Z,1.40
2023-09-30T22:21:05.031Z,2.78
2023-09-30T22:23:07.195Z,2.63
2023-09-30T22:25:10.165Z,3.05
2023-09-30T22:27:12.286Z,4.68
2023-09-30T22:29:14.204Z,3.28
2023-09-30T22:31:16.371Z,2.05
2023-09-30T22:33:18.024Z,3.28
2023-09-30T22:35:20.390Z,3.35
2023-09-30T22:37:22.029Z,2.33
2023-09-30T22:39:23.654Z,2.72
2023-09-30T22:41:25.287Z,2.10
2023-09-30T22:43:26.873Z,2.08
2023-09-30T22:45:29.877Z,2.53
2023-09-30T22:47:43.296Z,6.53
2023-09-30T22:49:45.027Z,2.72
2023-09-30T22:51:46.675Z,2.35
2023-09-30T22:53:49.495Z,2.60
2023-09-30T22:57:54.797Z,2.17
2023-09-30T22:59:56.982Z,2.67
2023-09-30T23:01:59.668Z,3.13
2023-09-30T23:04:04.214Z,2.58
2023-09-30T23:06:05.847Z,2.67
2023-09-30T23:08:07.447Z,2.80
2023-09-30T23:10:10.567Z,2.33
2023-09-30T23:12:12.341Z,2.63
2023-09-30T23:14:13.925Z,1.75
2023-09-30T23:16:16.567Z,3.42
2023-09-30T23:18:18.345Z,2.47
2023-09-30T23:20:22.419Z,2.67
2023-09-30T23:22:24.608Z,1.85
2023-09-30T23:24:27.786Z,2.58
2023-09-30T23:26:29.728Z,2.20
2023-09-30T23:28:35.247Z,1.50
2023-09-30T23:30:39.475Z,1.95
2023-09-30T23:32:45.544Z,2.60
2023-09-30T23:34:47.336Z,1.60
2023-09-30T23:36:50.264Z,3.05
2023-09-30T23:38:54.628Z,3.03
2023-09-30T23:40:57.282Z,3.88
2023-09-30T23:42:59.689Z,1.60
2023-09-30T23:45:02.723Z,1.88
2023-09-30T23:47:04.871Z,2.85
2023-09-30T23:49:07.640Z,2.28
2023-09-30T23:51:11.353Z,4.10
2023-09-30T23:53:14.180Z,4.60
2023-09-30T23:55:16.556Z,2.78
2023-09-30T23:59:22.048Z,2.30
